Time;durP1;ratioP1;P1;durP2;ratioP2;P2;SDS_P1;SDS_P2;PMS_P1;PMS_P2;Temp;Humidity;BMP_temperature;BMP_pressure;BME280_temperature;BME280_humidity;BME280_pressure;Samples;Min_cycle;Max_cycle;Signal;HPM_P1;HPM_P2
2021/06/12 00:01:27;;;;;;;3.78;1.73;;;;;;;23.67;53.02;101842.72;5053057;28;20029;-57
2021/06/12 00:03:53;;;;;;;4.28;1.90;;;;;;;23.66;52.74;101838.38;5052598;28;20029;-58
2021/06/12 00:06:18;;;;;;;4.25;1.88;;;;;;;23.66;52.87;101838.38;5053110;28;20362;-57
2021/06/12 00:08:43;;;;;;;6.32;1.92;;;;;;;23.65;52.66;101839.34;5053256;28;20021;-57
2021/06/12 00:11:09;;;;;;;3.63;1.65;;;;;;;23.64;52.64;101838.53;5052063;28;20401;-57
2021/06/12 00:13:34;;;;;;;3.47;1.73;;;;;;;23.63;52.67;101839.50;5052882;28;20123;-58
2021/06/12 00:15:59;;;;;;;3.88;1.90;;;;;;;23.61;52.53;101837.97;5052950;28;20104;-58
2021/06/12 00:18:25;;;;;;;3.88;1.65;;;;;;;23.62;52.91;101835.13;5051993;28;20048;-58
2021/06/12 00:20:55;;;;;;;3.55;1.80;;;;;;;23.62;52.73;101834.31;5052841;28;20032;-57
2021/06/12 00:23:20;;;;;;;3.25;1.70;;;;;;;23.62;52.74;101828.97;5052481;28;20021;-58
2021/06/12 00:25:45;;;;;;;3.95;1.70;;;;;;;23.60;52.71;101837.09;5052819;28;20443;-57
2021/06/12 00:28:14;;;;;;;3.57;1.70;;;;;;;23.61;52.63;101835.31;5053085;28;20078;-58
2021/06/12 00:30:43;;;;;;;3.42;1.52;;;;;;;23.60;52.59;101830.94;5053336;28;20266;-57
2021/06/12 00:33:08;;;;;;;4.97;1.70;;;;;;;23.60;52.63;101830.94;5051414;28;20041;-57
2021/06/12 00:35:33;;;;;;;4.15;1.80;;;;;;;23.59;52.60;101829.25;5052945;28;20049;-58
2021/06/12 00:37:59;;;;;;;6.28;1.80;;;;;;;23.59;52.77;101831.91;5034816;28;20025;-58
2021/06/12 00:40:27;;;;;;;3.83;1.60;;;;;;;23.58;52.84;101832.91;5051738;28;20501;-57
2021/06/12 00:42:53;;;;;;;3.88;1.80;;;;;;;23.55;52.48;101829.53;5052651;28;20021;-57
2021/06/12 00:45:23;;;;;;;3.20;1.60;;;;;;;23.54;52.86;101827.88;5052338;28;20017;-58
2021/06/12 00:47:51;;;;;;;3.20;1.73;;;;;;;23.57;52.60;101832.06;5051733;28;20070;-57
2021/06/12 00:50:18;;;;;;;4.15;1.92;;;;;;;23.56;52.71;101827.72;5052093;28;20195;-58
2021/06/12 00:52:44;;;;;;;4.72;1.60;;;;;;;23.55;52.42;101824.22;5051984;28;20025;-57
2021/06/12 00:55:14;;;;;;;3.85;1.60;;;;;;;23.55;52.45;101826.03;5052598;28;20159;-58
2021/06/12 00:57:43;;;;;;;3.55;1.80;;;;;;;23.55;52.57;101816.22;5053087;28;20029;-58
2021/06/12 01:00:20;;;;;;;4.53;1.70;;;;;;;23.53;52.77;101817.38;5051535;28;20024;-57
2021/06/12 01:02:47;;;;;;;3.42;1.70;;;;;;;23.52;52.29;101810.34;5052234;28;20032;-57
2021/06/12 01:05:13;;;;;;;3.83;1.70;;;;;;;23.53;52.34;101815.53;5052186;28;20028;-57
2021/06/12 01:07:39;;;;;;;3.88;2.00;;;;;;;23.54;52.57;101813.69;5051654;28;20082;-57
2021/06/12 01:10:07;;;;;;;3.25;1.67;;;;;;;23.52;52.27;101819.16;5051937;28;20029;-58
2021/06/12 01:12:46;;;;;;;5.20;1.83;;;;;;;23.52;52.40;101813.84;5051897;28;20134;-57
2021/06/12 01:15:12;;;;;;;3.55;1.90;;;;;;;23.51;52.53;101808.66;5051042;28;20036;-57
2021/06/12 01:17:51;;;;;;;4.13;1.70;;;;;;;23.51;52.35;101806.00;5052398;28;20436;-57
2021/06/12 01:20:35;;;;;;;3.17;1.55;;;;;;;23.51;52.29;101806.00;5052148;28;20035;-57
2021/06/12 01:23:09;;;;;;;2.88;1.60;;;;;;;23.50;52.46;101805.16;5051412;28;20029;-57
2021/06/12 01:25:37;;;;;;;2.72;1.40;;;;;;;23.50;52.22;101809.66;5051963;28;20500;-57
2021/06/12 01:28:27;;;;;;;4.70;1.90;;;;;;;23.50;52.29;101804.34;5050761;28;20067;-57
2021/06/12 01:30:55;;;;;;;3.25;1.55;;;;;;;23.49;52.18;101805.31;5052100;28;20035;-57
2021/06/12 01:33:21;;;;;;;4.68;1.63;;;;;;;23.49;52.43;101813.28;5051709;28;20100;-58
2021/06/12 01:35:51;;;;;;;3.03;1.60;;;;;;;23.47;52.37;101810.75;5051038;28;20461;-58
2021/06/12 01:38:25;;;;;;;3.25;1.60;;;;;;;23.47;52.17;101813.41;5051859;28;20116;-58
2021/06/12 01:40:52;;;;;;;3.22;1.52;;;;;;;23.48;52.02;101808.94;5051716;28;20035;-58
2021/06/12 01:43:19;;;;;;;2.78;1.50;;;;;;;23.48;52.17;101816.91;5051648;28;20025;-58
2021/06/12 01:45:49;;;;;;;4.90;1.85;;;;;;;23.47;52.40;101813.41;5056024;28;20025;-58
2021/06/12 01:48:15;;;;;;;5.28;1.73;;;;;;;23.47;52.23;101807.25;5055498;28;20025;-58
2021/06/12 01:50:41;;;;;;;4.20;1.60;;;;;;;23.46;52.30;101805.56;5054944;28;20029;-58
2021/06/12 01:53:09;;;;;;;3.70;1.60;;;;;;;23.45;52.32;101810.06;5055342;28;20100;-58
2021/06/12 01:55:36;;;;;;;3.45;1.70;;;;;;;23.46;52.15;101813.56;5055792;28;20040;-57
2021/06/12 01:58:05;;;;;;;4.22;1.60;;;;;;;23.45;52.12;101810.06;5054739;28;20059;-58
2021/06/12 02:00:36;;;;;;;2.90;1.42;;;;;;;23.45;52.30;101810.06;5055640;28;20043;-58
2021/06/12 02:03:02;;;;;;;3.63;1.55;;;;;;;23.42;52.08;101805.00;5054388;28;20032;-58
2021/06/12 02:05:28;;;;;;;3.90;1.70;;;;;;;23.44;52.18;101811.03;5055626;28;20029;-58
2021/06/12 02:07:55;;;;;;;3.00;1.50;;;;;;;23.44;52.18;101819.00;5055651;28;20021;-57
2021/06/12 02:10:27;;;;;;;4.60;1.85;;;;;;;23.41;52.19;101805.97;5054394;28;20575;-57
2021/06/12 02:12:54;;;;;;;3.42;1.25;;;;;;;23.42;52.13;101810.34;5055127;28;20049;-57
2021/06/12 02:15:21;;;;;;;3.65;1.48;;;;;;;23.43;51.99;101809.38;5054949;28;20102;-57
2021/06/12 02:17:48;;;;;;;3.60;1.60;;;;;;;23.43;51.97;101811.16;5054459;28;20028;-57
2021/06/12 02:20:14;;;;;;;3.40;1.70;;;;;;;23.43;52.17;101816.47;5055132;28;20029;-58
2021/06/12 02:22:51;;;;;;;4.18;1.40;;;;;;;23.42;52.04;101813.00;5055301;28;20029;-58
2021/06/12 02:25:18;;;;;;;3.95;1.60;;;;;;;23.42;52.42;101817.47;5053978;28;20503;-58
2021/06/12 02:27:48;;;;;;;3.92;1.83;;;;;;;23.41;52.14;101811.28;5055031;28;20036;-58
2021/06/12 02:30:15;;;;;;;3.85;1.70;;;;;;;23.41;52.14;101816.63;5054596;28;20043;-58
2021/06/12 02:32:43;;;;;;;3.15;1.58;;;;;;;23.41;52.03;101821.94;5054312;28;20025;-57
2021/06/12 02:35:10;;;;;;;4.05;1.50;;;;;;;23.41;51.93;101826.44;5054778;28;20049;-57
2021/06/12 02:37:38;;;;;;;3.13;1.60;;;;;;;23.40;51.90;101830.06;5054778;28;20060;-57
2021/06/12 02:40:07;;;;;;;3.80;1.70;;;;;;;23.40;51.97;101827.38;5053835;28;20047;-58
2021/06/12 02:42:34;;;;;;;3.92;1.60;;;;;;;23.38;51.84;101832.84;5054608;28;20339;-58
2021/06/12 02:45:00;;;;;;;2.97;1.50;;;;;;;23.39;51.85;101836.38;5054945;28;20056;-57
2021/06/12 02:47:27;;;;;;;3.38;1.58;;;;;;;23.39;51.83;101831.06;5053586;28;20049;-57
2021/06/12 02:49:56;;;;;;;3.15;1.42;;;;;;;23.38;51.76;101838.16;5054728;28;20119;-56
2021/06/12 02:52:25;;;;;;;3.60;1.52;;;;;;;23.38;52.01;101838.16;5053625;28;20112;-58
2021/06/12 02:54:52;;;;;;;3.20;1.35;;;;;;;23.36;51.95;101850.78;5053735;28;20103;-57
2021/06/12 02:57:18;;;;;;;2.78;1.50;;;;;;;23.36;51.78;101846.28;5054016;28;20040;-57
2021/06/12 02:59:45;;;;;;;2.78;1.27;;;;;;;23.36;51.78;101835.63;5053970;28;20036;-57
2021/06/12 03:02:13;;;;;;;3.80;1.60;;;;;;;23.36;52.01;101830.31;5054374;28;20104;-58
2021/06/12 03:04:43;;;;;;;3.00;1.42;;;;;;;23.33;51.92;101813.81;5054608;28;20025;-58
2021/06/12 03:07:12;;;;;;;3.58;1.50;;;;;;;23.36;52.06;101813.53;5053295;28;20487;-57
2021/06/12 03:09:39;;;;;;;3.22;1.40;;;;;;;23.36;51.90;101802.91;5054183;28;20157;-58
2021/06/12 03:12:06;;;;;;;3.10;1.60;;;;;;;23.35;51.79;101809.19;5053576;28;20049;-57
2021/06/12 03:14:33;;;;;;;3.50;1.73;;;;;;;23.34;51.93;101805.69;5053442;28;20021;-58
2021/06/12 03:16:59;;;;;;;3.30;1.60;;;;;;;23.34;52.00;101808.34;5054149;28;20048;-58
2021/06/12 03:19:25;;;;;;;2.97;1.63;;;;;;;23.35;51.78;101809.19;5053837;28;20473;-57
2021/06/12 03:21:51;;;;;;;3.95;1.55;;;;;;;23.34;51.91;101810.19;5053224;28;20515;-58
2021/06/12 03:24:17;;;;;;;3.45;1.38;;;;;;;23.33;52.11;101804.00;5053495;28;20392;-58
2021/06/12 03:26:43;;;;;;;3.25;1.42;;;;;;;23.33;51.84;101813.81;5053828;28;20025;-58
2021/06/12 03:29:09;;;;;;;3.03;1.40;;;;;;;23.33;51.94;101825.28;5052839;28;20037;-57
2021/06/12 03:31:34;;;;;;;4.13;1.65;;;;;;;23.32;51.63;101828.06;5053702;28;20021;-57
2021/06/12 03:34:00;;;;;;;3.10;1.60;;;;;;;23.33;51.74;101835.09;5053704;28;20021;-58
2021/06/12 03:36:30;;;;;;;3.60;1.67;;;;;;;23.31;51.79;101829.06;5052647;28;20025;-57
2021/06/12 03:38:55;;;;;;;4.03;1.55;;;;;;;23.32;51.65;101828.94;5053523;28;20028;-56
2021/06/12 03:41:21;;;;;;;3.70;1.83;;;;;;;23.31;51.54;101823.75;5053555;28;20399;-57
2021/06/12 03:43:49;;;;;;;3.17;1.40;;;;;;;23.32;51.69;101826.28;5053003;28;20017;-57
2021/06/12 03:46:17;;;;;;;2.70;1.50;;;;;;;23.31;51.91;101821.09;5053225;28;20052;-57
2021/06/12 03:48:47;;;;;;;3.65;1.75;;;;;;;23.31;51.53;101815.75;5052945;28;20017;-57
2021/06/12 03:51:15;;;;;;;3.90;1.58;;;;;;;23.30;51.68;101814.06;5053069;28;20032;-57
2021/06/12 03:53:44;;;;;;;3.38;1.58;;;;;;;23.26;51.79;101804.69;5053532;28;20028;-57
2021/06/12 03:56:21;;;;;;;3.47;1.60;;;;;;;23.30;51.76;101817.56;5052672;28;20372;-57
2021/06/12 03:58:49;;;;;;;3.00;1.50;;;;;;;23.30;51.57;101816.72;5053241;28;20108;-57
2021/06/12 04:01:16;;;;;;;2.95;1.58;;;;;;;23.29;51.67;101823.88;5052921;28;20453;-57
2021/06/12 04:03:42;;;;;;;3.70;1.67;;;;;;;23.30;51.60;101825.53;5052367;28;20017;-57
2021/06/12 04:06:09;;;;;;;3.25;1.38;;;;;;;23.29;51.82;101834.50;5053286;28;20032;-57
2021/06/12 04:08:35;;;;;;;4.05;1.65;;;;;;;23.28;51.76;101832.00;5053523;28;20024;-57
2021/06/12 04:11:00;;;;;;;3.80;1.50;;;;;;;23.28;51.81;101834.66;5052185;28;20488;-58
2021/06/12 04:13:28;;;;;;;3.72;1.50;;;;;;;23.27;51.77;101841.75;5052543;28;20052;-57
2021/06/12 04:15:54;;;;;;;3.50;1.45;;;;;;;23.27;51.49;101841.75;5053035;28;20090;-56
2021/06/12 04:18:20;;;;;;;3.30;1.48;;;;;;;23.28;51.83;101845.28;5051825;28;20464;-57
2021/06/12 04:20:45;;;;;;;3.72;2.05;;;;;;;23.27;51.61;101854.22;5053083;28;20511;-57
2021/06/12 04:23:11;;;;;;;3.42;1.50;;;;;;;23.24;51.71;101838.53;5052848;28;20104;-57
2021/06/12 04:25:36;;;;;;;3.30;1.58;;;;;;;23.26;51.61;101845.41;5051883;28;20108;-57
2021/06/12 04:28:02;;;;;;;3.08;1.40;;;;;;;23.22;51.49;101841.34;5052496;28;20029;-57
2021/06/12 04:30:27;;;;;;;3.97;1.55;;;;;;;23.25;51.60;101835.75;5052690;28;20476;-58
2021/06/12 04:32:53;;;;;;;4.25;1.80;;;;;;;23.26;51.62;101841.94;5051862;28;20060;-58
2021/06/12 04:35:18;;;;;;;3.17;1.48;;;;;;;23.26;51.69;101845.41;5052269;28;20079;-57
2021/06/12 04:37:44;;;;;;;3.17;1.65;;;;;;;23.25;51.57;101835.75;5052077;28;20028;-57
2021/06/12 04:40:14;;;;;;;4.07;1.70;;;;;;;23.25;51.70;101829.59;5052190;28;20029;-57
2021/06/12 04:42:40;;;;;;;3.08;1.30;;;;;;;23.21;51.61;101815.75;5052603;28;20132;-57
2021/06/12 04:45:07;;;;;;;3.05;1.48;;;;;;;23.26;51.65;101831.28;5051479;28;20024;-56
2021/06/12 04:47:33;;;;;;;3.35;1.60;;;;;;;23.25;51.80;101834.91;5052460;28;20096;-58
2021/06/12 04:49:59;;;;;;;3.95;1.70;;;;;;;23.25;51.74;101825.13;5052263;28;20117;-57
2021/06/12 04:52:24;;;;;;;3.53;1.70;;;;;;;23.24;51.47;101836.75;5051558;28;20098;-58
2021/06/12 04:54:51;;;;;;;3.40;1.65;;;;;;;23.25;51.59;101846.38;5052515;28;20496;-57
2021/06/12 04:57:17;;;;;;;3.60;1.50;;;;;;;23.24;51.55;101844.72;5052021;28;20028;-58
2021/06/12 04:59:42;;;;;;;3.40;1.55;;;;;;;23.25;51.60;101845.56;5051568;28;20025;-57
2021/06/12 05:02:07;;;;;;;3.28;1.45;;;;;;;23.24;51.74;101830.56;5051875;28;20028;-57
2021/06/12 05:04:33;;;;;;;4.03;1.60;;;;;;;23.24;51.75;101826.09;5052146;28;20032;-57
2021/06/12 05:06:58;;;;;;;3.58;1.42;;;;;;;23.23;51.67;101829.72;5051647;28;20029;-57
2021/06/12 05:09:24;;;;;;;3.08;1.50;;;;;;;23.23;51.77;101835.06;5051741;28;20503;-57
2021/06/12 05:11:50;;;;;;;2.92;1.60;;;;;;;23.24;51.79;101841.19;5051634;28;20087;-57
2021/06/12 05:14:15;;;;;;;4.07;1.60;;;;;;;23.25;51.63;101848.22;5050966;28;20063;-57
2021/06/12 05:16:44;;;;;;;3.20;1.60;;;;;;;23.24;51.58;101850.03;5051918;28;20021;-57
2021/06/12 05:19:09;;;;;;;3.90;1.55;;;;;;;23.25;51.59;101856.19;5050105;28;20041;-56
2021/06/12 05:21:44;;;;;;;3.35;1.65;;;;;;;23.24;51.63;101866.00;5051293;28;20106;-57
2021/06/12 05:24:10;;;;;;;3.67;1.73;;;;;;;23.25;51.79;101872.16;5051590;28;20104;-56
2021/06/12 05:26:35;;;;;;;3.22;1.45;;;;;;;23.24;51.77;101871.31;5052140;28;20059;-58
2021/06/12 05:29:00;;;;;;;2.85;1.52;;;;;;;23.23;51.58;101868.78;5051402;28;20105;-57
2021/06/12 05:31:26;;;;;;;3.08;1.45;;;;;;;23.23;51.86;101869.63;5051415;28;20112;-58
2021/06/12 05:33:51;;;;;;;2.83;1.50;;;;;;;23.24;51.72;101875.78;5051965;28;20147;-58
2021/06/12 05:36:16;;;;;;;3.00;1.60;;;;;;;23.24;51.85;101876.63;5051055;28;20052;-58
2021/06/12 05:38:42;;;;;;;3.70;2.00;;;;;;;23.23;51.65;101872.28;5051852;28;20262;-58
2021/06/12 05:41:07;;;;;;;4.43;1.95;;;;;;;23.22;51.81;101867.09;5050817;28;20036;-58
2021/06/12 05:43:33;;;;;;;5.78;2.03;;;;;;;23.21;52.09;101876.91;5051939;28;20100;-57
2021/06/12 05:46:18;;;;;;;5.18;2.25;;;;;;;23.18;52.15;101880.66;5051685;28;20017;-58
2021/06/12 05:48:43;;;;;;;4.03;2.20;;;;;;;23.17;52.07;101886.09;5040459;28;20037;-57
2021/06/12 05:51:09;;;;;;;4.32;2.10;;;;;;;23.15;52.41;101882.75;5051447;28;20033;-58
2021/06/12 05:53:34;;;;;;;3.67;2.00;;;;;;;23.14;52.14;101894.34;5051670;28;20468;-56
2021/06/12 05:56:02;;;;;;;4.03;2.25;;;;;;;23.13;52.33;101895.31;5051190;28;20266;-57
2021/06/12 05:58:27;;;;;;;4.13;1.95;;;;;;;23.11;52.08;101897.28;5050609;28;20045;-57
2021/06/12 06:00:53;;;;;;;4.65;1.85;;;;;;;23.12;52.34;101899.78;5051897;28;20461;-57
2021/06/12 06:03:21;;;;;;;4.15;2.10;;;;;;;23.09;52.49;101904.53;5050733;28;20104;-61
2021/06/12 06:05:46;;;;;;;5.30;2.10;;;;;;;23.08;52.34;101902.84;5051912;28;20017;-58
2021/06/12 06:08:11;;;;;;;5.07;2.10;;;;;;;23.08;52.42;101906.38;5051582;28;20025;-58
2021/06/12 06:10:40;;;;;;;4.75;2.30;;;;;;;23.08;52.41;101902.84;5050930;28;20017;-58
2021/06/12 06:13:05;;;;;;;4.43;2.38;;;;;;;23.07;52.36;101907.31;5050981;28;20102;-58
2021/06/12 06:15:31;;;;;;;4.55;2.53;;;;;;;23.07;52.37;101911.78;5051930;28;20037;-63
2021/06/12 06:17:56;;;;;;;4.68;2.33;;;;;;;23.06;52.36;101910.94;5051030;28;20079;-58
2021/06/12 06:20:22;;;;;;;5.03;3.40;;;;;;;23.07;52.49;101903.81;5050769;28;20170;-58
2021/06/12 06:22:51;;;;;;;6.25;3.85;;;;;;;23.06;52.48;101908.25;5051104;28;20509;-58
2021/06/12 06:25:16;;;;;;;7.28;4.95;;;;;;;23.04;52.50;101907.56;5050171;28;20024;-58
2021/06/12 06:27:41;;;;;;;7.10;4.60;;;;;;;23.00;52.68;101908.78;5051421;28;20025;-57
2021/06/12 06:30:08;;;;;;;8.73;5.63;;;;;;;23.00;52.72;101907.00;5051487;28;20025;-60
2021/06/12 06:32:37;;;;;;;8.20;5.22;;;;;;;22.97;53.00;101907.25;5054365;28;20039;-58
2021/06/12 06:35:03;;;;;;;8.90;5.90;;;;;;;22.98;52.99;101905.44;5054831;28;20025;-57
2021/06/12 06:37:29;;;;;;;8.00;5.78;;;;;;;22.99;53.11;101909.78;5054200;28;20078;-60
2021/06/12 06:39:54;;;;;;;8.23;5.38;;;;;;;22.97;52.92;101904.59;5055161;28;20024;-59
2021/06/12 06:42:22;;;;;;;7.40;4.75;;;;;;;22.99;52.86;101910.63;5054540;28;20460;-59
2021/06/12 06:44:47;;;;;;;8.20;5.50;;;;;;;22.97;53.16;101903.72;5054308;28;20021;-59
2021/06/12 06:47:13;;;;;;;8.52;6.15;;;;;;;22.95;53.34;101911.00;5054544;28;20036;-59
2021/06/12 06:49:45;;;;;;;10.60;6.07;;;;;;;22.92;53.64;101913.91;5054984;28;20021;-59
2021/06/12 06:52:10;;;;;;;8.82;6.30;;;;;;;22.89;53.35;101909.72;5053628;28;20025;-57
2021/06/12 06:54:38;;;;;;;8.00;5.90;;;;;;;22.89;53.65;101901.75;5054543;28;20040;-60
2021/06/12 06:57:15;;;;;;;8.13;6.18;;;;;;;22.89;53.56;101906.22;5054440;28;20036;-59
2021/06/12 06:59:44;;;;;;;8.50;6.10;;;;;;;22.91;53.73;101915.75;5054172;28;20025;-59
2021/06/12 07:02:09;;;;;;;9.23;6.53;;;;;;;22.92;53.85;101919.25;5054550;28;20036;-57
2021/06/12 07:04:37;;;;;;;9.48;6.95;;;;;;;22.92;53.86;101920.09;5054891;28;20372;-58
2021/06/12 07:07:04;;;;;;;10.15;7.40;;;;;;;22.92;53.56;101920.09;5053547;28;20021;-58
2021/06/12 07:09:29;;;;;;;9.48;6.68;;;;;;;22.92;53.69;101937.84;5054442;28;20546;-59
2021/06/12 07:11:56;;;;;;;10.73;7.18;;;;;;;22.93;53.95;101929.75;5054038;28;20360;-57
2021/06/12 07:14:21;;;;;;;10.40;6.82;;;;;;;22.91;53.73;101933.53;5053283;28;20173;-57
2021/06/12 07:16:47;;;;;;;10.70;7.05;;;;;;;22.93;53.85;101931.56;5054344;28;20064;-58
2021/06/12 07:19:12;;;;;;;9.65;6.68;;;;;;;22.92;54.19;101930.72;5053899;28;20123;-57
2021/06/12 07:21:38;;;;;;;9.18;6.68;;;;;;;22.92;54.09;101941.38;5053422;28;20353;-59
2021/06/12 07:24:04;;;;;;;8.55;6.15;;;;;;;22.90;54.25;101931.81;5053714;28;20455;-58
2021/06/12 07:26:29;;;;;;;8.75;6.70;;;;;;;22.92;54.59;101932.53;5053928;28;20017;-58
2021/06/12 07:28:55;;;;;;;10.60;7.43;;;;;;;22.93;54.32;101934.22;5054051;28;20487;-59
2021/06/12 07:31:30;;;;;;;8.63;6.45;;;;;;;22.95;54.16;101932.28;5060750;28;20354;-60
2021/06/12 07:33:55;;;;;;;9.13;6.40;;;;;;;22.97;54.36;101936.50;5055536;28;20021;-59
2021/06/12 07:36:22;;;;;;;10.35;6.47;;;;;;;22.99;54.11;101926.56;5055361;28;20132;-59
2021/06/12 07:38:48;;;;;;;8.80;6.07;;;;;;;23.00;53.98;101933.56;5055087;28;20037;-59
2021/06/12 07:41:13;;;;;;;9.35;5.70;;;;;;;23.03;54.13;101932.44;5054549;28;20101;-59
2021/06/12 07:43:39;;;;;;;9.00;5.10;;;;;;;23.07;54.21;101933.88;5055641;28;20127;-60
2021/06/12 07:46:04;;;;;;;7.82;4.63;;;;;;;23.11;54.25;101940.63;5054805;28;20041;-59
2021/06/12 07:48:30;;;;;;;7.32;4.95;;;;;;;23.16;54.20;101934.94;5054147;28;20411;-59
2021/06/12 07:50:55;;;;;;;7.50;4.93;;;;;;;23.20;54.45;101939.03;5054381;28;20464;-59
2021/06/12 07:53:23;;;;;;;6.50;4.43;;;;;;;23.23;54.38;101941.41;5054341;28;20112;-57
2021/06/12 07:55:49;;;;;;;6.65;4.82;;;;;;;23.26;54.21;101943.81;5053519;28;20033;-62
2021/06/12 07:58:14;;;;;;;6.82;4.63;;;;;;;23.27;53.96;101940.16;5054727;28;20070;-60
2021/06/12 08:00:39;;;;;;;6.38;4.50;;;;;;;23.28;54.40;101949.84;5053477;28;20056;-58
2021/06/12 08:03:08;;;;;;;6.82;4.75;;;;;;;23.31;54.07;101946.91;5052419;28;20029;-57
2021/06/12 08:05:33;;;;;;;6.82;4.18;;;;;;;23.34;54.13;101948.47;5053574;28;20021;-62
2021/06/12 08:07:59;;;;;;;7.22;4.35;;;;;;;23.36;54.15;101946.53;5054260;28;20129;-59
2021/06/12 08:10:25;;;;;;;7.05;4.25;;;;;;;23.39;54.21;101945.44;5052556;28;20110;-60
2021/06/12 08:12:53;;;;;;;7.45;4.50;;;;;;;23.40;54.19;101944.44;5054116;28;20049;-60
2021/06/12 08:15:18;;;;;;;7.07;4.30;;;;;;;23.39;54.30;101940.94;5053087;28;20032;-59
2021/06/12 08:17:50;;;;;;;6.45;4.38;;;;;;;23.38;53.89;101954.38;5052572;28;20025;-59
2021/06/12 08:20:15;;;;;;;5.75;3.92;;;;;;;23.40;53.94;101957.72;5054600;28;20016;-64
2021/06/12 08:22:41;;;;;;;5.35;3.85;;;;;;;23.41;53.81;101954.09;5053706;28;20362;-58
2021/06/12 08:25:10;;;;;;;6.47;4.10;;;;;;;23.40;53.96;101950.63;5052207;28;20451;-59
2021/06/12 08:27:36;;;;;;;6.05;4.00;;;;;;;23.38;53.95;101952.53;5053417;28;20025;-59
2021/06/12 08:30:03;;;;;;;7.13;3.70;;;;;;;23.35;54.03;101948.34;5052087;28;20100;-60
2021/06/12 08:32:29;;;;;;;5.75;3.70;;;;;;;23.36;53.97;101962.47;5053444;28;20033;-61
2021/06/12 08:34:54;;;;;;;5.38;3.95;;;;;;;23.33;53.76;101957.44;5053032;28;20445;-58
2021/06/12 08:37:19;;;;;;;6.75;4.13;;;;;;;23.34;53.74;101959.13;5051649;28;20113;-58
2021/06/12 08:39:52;;;;;;;8.00;3.80;;;;;;;23.33;53.61;101963.56;5052427;28;20068;-58
2021/06/12 08:42:17;;;;;;;5.72;3.90;;;;;;;23.34;53.59;101964.44;5052177;28;20105;-59
2021/06/12 08:44:44;;;;;;;6.50;3.30;;;;;;;23.35;53.42;101960.78;5051768;28;20516;-57
2021/06/12 08:47:11;;;;;;;6.28;3.20;;;;;;;23.36;53.51;101968.63;5052012;28;20025;-58
2021/06/12 08:49:37;;;;;;;5.13;3.30;;;;;;;23.36;53.43;101970.47;5052447;28;20028;-58
2021/06/12 08:52:03;;;;;;;4.70;3.10;;;;;;;23.35;53.29;101971.44;5051472;28;20029;-60
2021/06/12 08:54:29;;;;;;;5.95;3.40;;;;;;;23.38;53.22;101973.81;5051149;28;20047;-59
2021/06/12 08:56:54;;;;;;;6.75;3.35;;;;;;;23.37;53.17;101966.84;5052266;28;20021;-58
2021/06/12 08:59:20;;;;;;;5.03;3.42;;;;;;;23.39;53.40;101975.53;5051235;28;20067;-58
2021/06/12 09:01:46;;;;;;;5.40;3.13;;;;;;;23.38;53.26;101971.16;5051994;28;20040;-59
2021/06/12 09:04:28;;;;;;;5.57;3.17;;;;;;;23.38;53.45;101978.31;5051969;28;20032;-58
2021/06/12 09:07:19;;;;;;;5.55;3.10;;;;;;;23.40;53.12;101977.22;5051352;28;20108;-57
2021/06/12 09:09:46;;;;;;;5.13;3.22;;;;;;;23.41;53.28;101989.53;5052220;28;20037;-58
2021/06/12 09:12:11;;;;;;;5.57;3.03;;;;;;;23.41;53.11;101986.88;5051014;28;20128;-59
2021/06/12 09:14:37;;;;;;;4.38;2.92;;;;;;;23.42;52.86;101991.22;5052156;28;20120;-59
2021/06/12 09:17:03;;;;;;;5.25;2.70;;;;;;;23.43;52.91;101992.91;5051988;28;20091;-59
2021/06/12 09:19:38;;;;;;;6.50;2.88;;;;;;;23.43;53.06;101990.25;5051903;28;20025;-59
2021/06/12 09:22:06;;;;;;;5.68;2.78;;;;;;;23.42;52.96;101993.03;5051824;28;20035;-59
2021/06/12 09:24:34;;;;;;;5.32;2.60;;;;;;;23.44;53.06;101999.91;5051866;28;20100;-58
2021/06/12 09:27:03;;;;;;;5.55;2.88;;;;;;;23.43;52.90;102000.03;5051437;28;20029;-58
2021/06/12 09:29:37;;;;;;;5.72;2.50;;;;;;;23.40;51.86;101995.84;5052071;28;20029;-58
2021/06/12 09:32:10;;;;;;;5.00;2.42;;;;;;;23.34;51.12;101994.53;5051694;28;20090;-58
2021/06/12 09:34:36;;;;;;;5.50;2.35;;;;;;;23.30;50.33;101997.59;5051384;28;20021;-58
2021/06/12 09:37:10;;;;;;;4.80;2.25;;;;;;;23.25;49.18;101997.13;5050985;28;20029;-59
2021/06/12 09:39:35;;;;;;;4.40;2.20;;;;;;;23.21;49.03;101993.03;5051877;28;20111;-59
2021/06/12 09:42:04;;;;;;;6.25;2.58;;;;;;;23.15;48.53;102000.56;5051502;28;20057;-58
2021/06/12 09:44:30;;;;;;;7.25;2.78;;;;;;;23.10;47.88;101999.28;5050963;28;20116;-58
2021/06/12 09:46:55;;;;;;;4.60;2.17;;;;;;;23.07;47.40;102000.34;5051738;28;20067;-58
2021/06/12 09:49:30;;;;;;;5.68;2.63;;;;;;;23.04;46.90;102002.44;5050624;28;20021;-58
2021/06/12 09:52:10;;;;;;;6.15;2.40;;;;;;;23.01;47.18;102020.31;5051620;28;20131;-59
2021/06/12 09:54:45;;;;;;;7.88;2.40;;;;;;;23.05;47.23;102022.72;5050921;28;20488;-59
2021/06/12 09:57:13;;;;;;;6.20;2.67;;;;;;;23.06;46.66;102025.25;5051256;28;20415;-58
2021/06/12 09:59:44;;;;;;;5.68;2.20;;;;;;;23.07;46.50;102023.44;5051429;28;20021;-58
2021/06/12 10:02:10;;;;;;;5.50;2.50;;;;;;;23.05;46.12;102025.38;5050308;28;20021;-58
2021/06/12 10:04:36;;;;;;;5.57;2.30;;;;;;;23.03;46.30;102028.16;5052740;28;20020;-57
2021/06/12 10:07:01;;;;;;;5.63;2.30;;;;;;;23.04;46.37;102032.50;5055087;28;20373;-58
2021/06/12 10:09:27;;;;;;;5.82;2.00;;;;;;;23.01;46.66;102030.94;5054756;28;20144;-58
2021/06/12 10:11:54;;;;;;;4.85;2.10;;;;;;;23.03;46.28;102029.97;5055023;28;20051;-58
2021/06/12 10:14:20;;;;;;;5.72;2.30;;;;;;;23.01;46.30;102025.63;5054876;28;20044;-58
2021/06/12 10:16:47;;;;;;;6.22;2.22;;;;;;;23.03;46.94;102028.16;5054376;28;20029;-59
2021/06/12 10:19:18;;;;;;;6.70;2.30;;;;;;;23.02;46.65;102034.47;5054919;28;20033;-58
2021/06/12 10:21:44;;;;;;;4.28;2.15;;;;;;;23.03;46.86;102032.66;5055195;28;20377;-58
2021/06/12 10:24:16;;;;;;;6.22;2.35;;;;;;;23.04;46.17;102040.50;5053956;28;20071;-58
2021/06/12 10:26:45;;;;;;;4.70;2.10;;;;;;;23.05;45.75;102036.88;5054805;28;20491;-58
2021/06/12 10:29:13;;;;;;;4.57;1.95;;;;;;;23.05;45.76;102030.69;5054227;28;20071;-58
2021/06/12 10:31:41;;;;;;;5.85;2.30;;;;;;;23.08;46.01;102022.50;5054034;28;20024;-58
2021/06/12 10:34:06;;;;;;;5.45;1.98;;;;;;;23.12;46.42;102031.91;5054775;28;20055;-58
2021/06/12 10:36:33;;;;;;;6.50;2.50;;;;;;;23.16;46.68;102028.88;5054030;28;20049;-58
2021/06/12 10:39:00;;;;;;;5.15;2.45;;;;;;;23.21;46.42;102024.94;5054494;28;20044;-56
2021/06/12 10:41:28;;;;;;;4.03;1.95;;;;;;;23.26;46.21;102033.41;5054183;28;20028;-55
2021/06/12 10:43:59;;;;;;;4.45;2.15;;;;;;;23.28;46.06;102036.78;5053664;28;20040;-56
2021/06/12 10:46:26;;;;;;;5.55;2.17;;;;;;;23.30;46.15;102040.13;5054412;28;20096;-57
2021/06/12 10:48:57;;;;;;;6.22;2.20;;;;;;;23.31;45.53;102040.00;5054555;28;20017;-57
2021/06/12 10:51:25;;;;;;;6.05;2.40;;;;;;;23.32;45.28;102046.16;5053067;28;20102;-56
2021/06/12 10:54:25;;;;;;;7.30;2.50;;;;;;;23.34;45.31;102047.72;5054483;28;20160;-56
2021/06/12 10:57:01;;;;;;;4.82;1.98;;;;;;;23.37;45.36;102054.63;5043510;28;20037;-57
2021/06/12 10:59:32;;;;;;;5.45;2.05;;;;;;;23.38;45.47;102058.09;5053643;28;20025;-58
2021/06/12 11:02:22;;;;;;;5.22;1.90;;;;;;;23.42;45.84;102048.91;5054142;28;20526;-57
2021/06/12 11:04:57;;;;;;;5.32;2.47;;;;;;;23.44;45.35;102045.13;5053503;28;20487;-57
2021/06/12 11:07:28;;;;;;;5.53;2.10;;;;;;;23.47;45.49;102044.03;5054106;28;20037;-57
2021/06/12 11:10:18;;;;;;;5.43;2.45;;;;;;;23.48;45.19;102037.72;5054196;28;20356;-57
2021/06/12 11:12:48;;;;;;;5.57;1.98;;;;;;;23.49;45.10;102055.38;5044629;28;20120;-59
2021/06/12 11:15:23;;;;;;;5.10;1.85;;;;;;;23.52;45.49;102053.28;5054284;28;20029;-58
2021/06/12 11:18:20;;;;;;;4.18;1.80;;;;;;;23.58;46.16;102053.75;5054603;28;20029;-58
2021/06/12 11:20:48;;;;;;;5.07;2.10;;;;;;;23.62;46.59;102044.53;5053759;28;20032;-57
2021/06/12 11:23:17;;;;;;;7.15;2.28;;;;;;;23.60;46.14;102026.03;5054433;28;20076;-59
2021/06/12 11:25:45;;;;;;;4.35;2.00;;;;;;;23.69;46.31;102037.72;5035889;28;20021;-59
2021/06/12 11:28:28;;;;;;;5.07;1.70;;;;;;;23.71;46.62;102047.22;5054450;28;20028;-58